Time;durP1;ratioP1;P1;durP2;ratioP2;P2;SDS_P1;SDS_P2;PMS_P1;PMS_P2;Temp;Humidity;BMP_temperature;BMP_pressure;BME280_temperature;BME280_humidity;BME280_pressure;Samples;Min_cycle;Max_cycle;Signal;HPM_P1;HPM_P2
2021/07/26 00:00:49;;;;;;;3.05;1.20;;;19.60;99.90;;;;;;6217205;23;20211;-77
2021/07/26 00:03:16;;;;;;;2.33;1.00;;;19.60;99.90;;;;;;6217384;23;20187;-77
2021/07/26 00:05:43;;;;;;;2.22;1.30;;;19.60;99.90;;;;;;6217443;23;20239;-76
2021/07/26 00:08:11;;;;;;;2.00;1.40;;;19.50;99.90;;;;;;6216945;23;20682;-77
2021/07/26 00:10:38;;;;;;;3.85;1.35;;;19.50;99.90;;;;;;6217342;23;20180;-77
2021/07/26 00:13:04;;;;;;;2.22;1.42;;;19.40;99.90;;;;;;6217377;23;20208;-77
2021/07/26 00:15:31;;;;;;;1.75;1.02;;;19.30;99.90;;;;;;6216678;23;20654;-76
2021/07/26 00:17:58;;;;;;;3.08;1.60;;;19.30;99.90;;;;;;6217137;23;20204;-77
2021/07/26 00:20:25;;;;;;;1.67;1.15;;;19.40;99.90;;;;;;6216891;23;20188;-76
2021/07/26 00:22:51;;;;;;;1.23;1.08;;;19.40;99.90;;;;;;6216372;23;20181;-76
2021/07/26 00:25:21;;;;;;;2.10;1.40;;;19.50;99.90;;;;;;6216869;23;20181;-77
2021/07/26 00:27:48;;;;;;;2.40;1.30;;;19.50;99.90;;;;;;6216350;23;20200;-77
2021/07/26 00:30:17;;;;;;;4.22;1.48;;;19.50;99.90;;;;;;6216785;23;20187;-77
2021/07/26 00:32:44;;;;;;;1.83;1.15;;;19.60;99.90;;;;;;6216820;23;20260;-76
2021/07/26 00:35:11;;;;;;;5.38;1.20;;;19.60;99.90;;;;;;6216460;23;20180;-77
2021/07/26 00:37:38;;;;;;;1.65;1.30;;;19.60;99.90;;;;;;6216077;23;20204;-77
2021/07/26 00:40:09;;;;;;;1.55;1.08;;;19.50;99.90;;;;;;6216788;23;20176;-77
2021/07/26 00:42:37;;;;;;;1.60;1.13;;;19.50;99.90;;;;;;6216852;23;20685;-77
2021/07/26 00:45:05;;;;;;;1.15;0.98;;;19.50;99.90;;;;;;6216806;23;20180;-77
2021/07/26 00:47:32;;;;;;;2.67;1.60;;;19.50;99.90;;;;;;6216653;23;20271;-77
2021/07/26 00:49:59;;;;;;;2.13;1.08;;;19.50;99.90;;;;;;6216410;23;20641;-77
2021/07/26 00:52:26;;;;;;;3.08;1.35;;;19.50;99.90;;;;;;6216512;23;20200;-77
2021/07/26 00:54:54;;;;;;;4.03;1.33;;;19.40;99.90;;;;;;6216457;23;20177;-77
2021/07/26 00:57:22;;;;;;;3.17;1.60;;;19.40;99.90;;;;;;6216604;23;20196;-77
2021/07/26 00:59:51;;;;;;;1.08;0.95;;;19.50;99.90;;;;;;6216398;23;20659;-76
2021/07/26 01:02:17;;;;;;;4.43;1.40;;;19.40;99.90;;;;;;6216754;23;20234;-76
2021/07/26 01:04:44;;;;;;;1.75;1.15;;;19.40;99.90;;;;;;6216436;23;20176;-76
2021/07/26 01:07:11;;;;;;;3.83;1.40;;;19.40;99.90;;;;;;6216577;23;20519;-77
2021/07/26 01:09:38;;;;;;;1.42;1.00;;;19.50;99.90;;;;;;6216704;23;20234;-77
2021/07/26 01:12:06;;;;;;;2.33;0.98;;;19.40;99.90;;;;;;6216276;23;20188;-76
2021/07/26 01:14:33;;;;;;;1.90;1.30;;;19.40;99.90;;;;;;6216287;23;20176;-77
2021/07/26 01:17:01;;;;;;;2.38;1.30;;;19.30;99.90;;;;;;6216370;23;20177;-76
2021/07/26 01:19:28;;;;;;;2.42;1.27;;;19.30;99.90;;;;;;6216325;23;20262;-76
2021/07/26 01:21:57;;;;;;;1.67;1.00;;;19.20;99.90;;;;;;6215870;23;20184;-77
2021/07/26 01:24:24;;;;;;;2.92;1.52;;;19.20;99.90;;;;;;6216241;23;20535;-77
2021/07/26 01:26:51;;;;;;;2.95;1.40;;;19.10;99.90;;;;;;6216683;23;20180;-77
2021/07/26 01:29:18;;;;;;;2.35;1.42;;;19.00;99.90;;;;;;6216663;23;20259;-76
2021/07/26 01:31:45;;;;;;;2.00;1.17;;;19.00;99.90;;;;;;6216079;23;20628;-76
2021/07/26 01:34:12;;;;;;;2.53;1.40;;;18.90;99.90;;;;;;6215664;23;20538;-77
2021/07/26 01:36:40;;;;;;;5.15;1.50;;;18.90;99.90;;;;;;6216075;23;20473;-77
2021/07/26 01:39:08;;;;;;;2.28;1.40;;;18.90;99.90;;;;;;6216462;23;20200;-77
2021/07/26 01:41:36;;;;;;;3.30;1.23;;;19.00;99.90;;;;;;6216417;23;20176;-76
2021/07/26 01:44:04;;;;;;;3.25;1.23;;;18.90;99.90;;;;;;6215833;23;20263;-77
2021/07/26 01:46:45;;;;;;;4.13;1.60;;;18.90;99.90;;;;;;6215881;23;20177;-76
2021/07/26 01:49:28;;;;;;;2.30;1.15;;;18.80;99.90;;;;;;6216080;23;20207;-77
2021/07/26 01:51:56;;;;;;;3.15;1.45;;;18.80;99.90;;;;;;6216123;23;20180;-76
2021/07/26 01:54:24;;;;;;;3.22;1.40;;;18.70;99.90;;;;;;6215987;23;20208;-77
2021/07/26 01:56:51;;;;;;;1.87;1.30;;;18.60;99.90;;;;;;6216260;23;20182;-77
2021/07/26 01:59:18;;;;;;;7.20;1.33;;;18.60;99.90;;;;;;6216294;23;20183;-76
2021/07/26 02:01:44;;;;;;;2.03;1.30;;;18.70;99.90;;;;;;6215817;23;20184;-77
2021/07/26 02:04:11;;;;;;;1.70;1.43;;;18.60;99.90;;;;;;6215076;23;20195;-77
2021/07/26 02:06:38;;;;;;;1.80;1.17;;;18.60;99.90;;;;;;6216135;23;20182;-76
2021/07/26 02:09:05;;;;;;;3.30;1.70;;;18.50;99.90;;;;;;6215964;23;20197;-77
2021/07/26 02:11:33;;;;;;;1.90;1.27;;;18.50;99.90;;;;;;6216236;23;20184;-77
2021/07/26 02:13:59;;;;;;;1.87;1.07;;;18.50;99.90;;;;;;6215460;23;20698;-76
2021/07/26 02:16:26;;;;;;;1.95;1.17;;;18.50;99.90;;;;;;6215774;23;20176;-76
2021/07/26 02:18:53;;;;;;;2.97;1.43;;;18.40;99.90;;;;;;6215883;23;20196;-77
2021/07/26 02:21:20;;;;;;;2.00;1.37;;;18.30;99.90;;;;;;6216707;23;20190;-76
2021/07/26 02:23:46;;;;;;;2.10;1.37;;;18.30;99.90;;;;;;6215267;23;20500;-77
2021/07/26 02:26:13;;;;;;;2.17;1.40;;;18.30;99.90;;;;;;6216154;23;20176;-78
2021/07/26 02:28:41;;;;;;;2.17;1.20;;;18.30;99.90;;;;;;6215552;23;20701;-77
2021/07/26 02:31:08;;;;;;;3.13;1.87;;;18.30;99.90;;;;;;6215349;23;20697;-76
2021/07/26 02:33:35;;;;;;;1.50;1.20;;;18.30;99.90;;;;;;6214985;23;20536;-77
2021/07/26 02:36:02;;;;;;;3.80;1.40;;;18.20;99.90;;;;;;6216639;23;20495;-77
2021/07/26 02:38:28;;;;;;;2.73;1.57;;;18.20;99.90;;;;;;6215166;23;20202;-77
2021/07/26 02:40:55;;;;;;;1.93;1.10;;;18.10;99.90;;;;;;6215244;23;20210;-76
2021/07/26 02:43:22;;;;;;;2.57;1.30;;;18.10;99.90;;;;;;6215674;23;20191;-76
2021/07/26 02:45:50;;;;;;;2.63;1.30;;;18.00;99.90;;;;;;6215820;23;20183;-76
2021/07/26 02:48:17;;;;;;;2.07;1.47;;;18.00;99.90;;;;;;6215001;23;20706;-76
2021/07/26 02:50:44;;;;;;;3.30;1.60;;;18.00;99.90;;;;;;6215884;23;20198;-76
2021/07/26 02:53:10;;;;;;;1.93;1.30;;;17.90;99.90;;;;;;6215263;23;20536;-76
2021/07/26 02:55:40;;;;;;;2.27;1.30;;;17.80;99.90;;;;;;6214930;23;20181;-76
2021/07/26 02:58:07;;;;;;;3.40;1.40;;;17.90;99.90;;;;;;6214927;23;20207;-76
2021/07/26 03:00:33;;;;;;;3.43;1.70;;;17.90;99.90;;;;;;6215373;23;20655;-76
2021/07/26 03:03:01;;;;;;;5.70;1.43;;;18.00;99.90;;;;;;6215547;23;20181;-77
2021/07/26 03:05:28;;;;;;;3.47;1.50;;;17.90;99.90;;;;;;6215256;23;20183;-77
2021/07/26 03:07:55;;;;;;;4.47;1.80;;;17.90;99.90;;;;;;6215777;23;20203;-76
2021/07/26 03:10:22;;;;;;;2.23;1.40;;;17.90;99.90;;;;;;6215774;23;20342;-76
2021/07/26 03:12:48;;;;;;;2.40;1.37;;;18.00;99.90;;;;;;6215222;23;20263;-77
2021/07/26 03:15:15;;;;;;;3.53;1.63;;;18.00;99.90;;;;;;6215602;23;20176;-76
2021/07/26 03:17:42;;;;;;;3.67;1.97;;;18.00;99.90;;;;;;6215020;23;20223;-76
2021/07/26 03:20:12;;;;;;;3.83;1.77;;;17.90;99.90;;;;;;6215530;23;20183;-76
2021/07/26 03:22:52;;;;;;;3.93;1.60;;;17.90;99.90;;;;;;6214936;23;20180;-76
2021/07/26 03:25:19;;;;;;;2.97;1.83;;;17.80;99.90;;;;;;6214546;23;20239;-76
2021/07/26 03:27:48;;;;;;;3.80;2.30;;;17.80;99.90;;;;;;6215254;23;20527;-77
2021/07/26 03:30:16;;;;;;;2.73;1.80;;;17.80;99.90;;;;;;6215709;23;20176;-76
2021/07/26 03:32:43;;;;;;;4.60;2.00;;;17.70;99.90;;;;;;6215124;23;20187;-77
2021/07/26 03:35:12;;;;;;;5.13;1.70;;;17.70;99.90;;;;;;6215024;23;20204;-77
2021/07/26 03:37:39;;;;;;;4.80;2.00;;;17.70;99.90;;;;;;6215262;23;20196;-76
2021/07/26 03:40:07;;;;;;;4.53;2.03;;;17.80;99.90;;;;;;6215263;23;20176;-77
2021/07/26 03:42:34;;;;;;;4.40;2.17;;;17.90;99.90;;;;;;6215589;23;20489;-76
2021/07/26 03:45:01;;;;;;;2.87;1.70;;;17.90;99.90;;;;;;6214485;23;20240;-76
2021/07/26 03:47:28;;;;;;;5.80;1.80;;;18.00;99.90;;;;;;6215496;23;20196;-77
2021/07/26 03:49:55;;;;;;;4.27;2.07;;;18.00;99.90;;;;;;6214986;23;20176;-77
2021/07/26 03:52:23;;;;;;;5.47;1.90;;;18.00;99.90;;;;;;6215130;23;20187;-76
2021/07/26 03:54:50;;;;;;;3.47;1.70;;;18.10;99.90;;;;;;6214283;23;20214;-77
2021/07/26 03:57:16;;;;;;;3.70;1.83;;;18.10;99.90;;;;;;6215282;23;20202;-77
2021/07/26 03:59:43;;;;;;;4.70;1.90;;;18.20;99.90;;;;;;6215531;23;20176;-76
2021/07/26 04:02:10;;;;;;;4.17;2.20;;;18.30;99.90;;;;;;6214733;23;20624;-77
2021/07/26 04:04:37;;;;;;;3.50;1.60;;;18.40;99.90;;;;;;6214367;23;20187;-77
2021/07/26 04:07:08;;;;;;;2.70;1.87;;;18.30;99.90;;;;;;6214364;23;20191;-77
2021/07/26 04:09:39;;;;;;;3.77;2.13;;;18.30;99.90;;;;;;6214548;23;20187;-76
2021/07/26 04:12:09;;;;;;;3.13;1.80;;;18.30;99.90;;;;;;6214893;23;20709;-76
2021/07/26 04:14:38;;;;;;;6.83;1.83;;;18.40;99.90;;;;;;6214112;23;20208;-76
2021/07/26 04:17:06;;;;;;;2.57;1.73;;;18.50;99.90;;;;;;6214416;23;20180;-77
2021/07/26 04:19:33;;;;;;;4.83;2.13;;;18.40;99.90;;;;;;6215103;23;20548;-76
2021/07/26 04:22:00;;;;;;;3.43;1.77;;;18.40;99.90;;;;;;6214503;23;20185;-77
2021/07/26 04:24:27;;;;;;;2.72;1.83;;;18.40;99.90;;;;;;6214426;23;20662;-77
2021/07/26 04:26:55;;;;;;;5.47;2.00;;;18.50;99.90;;;;;;6214389;23;20181;-77
2021/07/26 04:29:22;;;;;;;2.60;1.87;;;18.60;99.90;;;;;;6216340;23;20177;-77
2021/07/26 04:31:50;;;;;;;3.77;2.30;;;18.70;99.90;;;;;;6216249;23;20180;-77
2021/07/26 04:34:17;;;;;;;2.53;1.77;;;18.90;99.90;;;;;;6216539;23;20751;-77
2021/07/26 04:36:44;;;;;;;4.57;2.25;;;19.00;99.90;;;;;;6216533;23;20176;-77
2021/07/26 04:39:11;;;;;;;4.93;2.90;;;19.30;99.90;;;;;;6216200;23;20196;-77
2021/07/26 04:41:37;;;;;;;4.73;2.00;;;19.40;99.90;;;;;;6216733;23;20176;-76
2021/07/26 04:44:06;;;;;;;5.30;1.65;;;19.30;99.90;;;;;;6216779;23;20180;-77
2021/07/26 04:46:33;;;;;;;2.85;1.80;;;19.20;99.90;;;;;;6216487;23;20187;-77
2021/07/26 04:48:59;;;;;;;5.13;1.77;;;19.30;99.90;;;;;;6216285;23;20679;-77
2021/07/26 04:51:26;;;;;;;4.85;1.60;;;19.30;99.90;;;;;;6216921;23;20183;-77
2021/07/26 04:53:53;;;;;;;5.53;1.98;;;19.20;99.90;;;;;;6217049;23;20204;-77
2021/07/26 04:56:20;;;;;;;3.38;1.88;;;19.20;99.90;;;;;;6216734;23;20183;-77
2021/07/26 04:58:46;;;;;;;6.57;1.67;;;19.30;99.90;;;;;;6215940;23;20200;-77
2021/07/26 05:01:15;;;;;;;2.50;1.85;;;19.20;99.90;;;;;;6216719;23;20186;-77
2021/07/26 05:03:41;;;;;;;2.85;1.70;;;19.40;99.90;;;;;;6216898;23;20503;-77
2021/07/26 05:06:09;;;;;;;3.97;1.65;;;19.80;99.90;;;;;;6216182;23;20180;-77
2021/07/26 05:08:35;;;;;;;3.78;1.80;;;20.30;99.90;;;;;;6216233;23;20203;-77
2021/07/26 05:11:02;;;;;;;6.13;1.73;;;20.90;99.90;;;;;;6216835;23;20177;-77
2021/07/26 05:13:29;;;;;;;2.58;1.60;;;21.40;99.90;;;;;;6216501;23;20176;-77
2021/07/26 05:15:56;;;;;;;3.90;1.40;;;21.60;99.90;;;;;;6215942;23;20177;-77
2021/07/26 05:18:24;;;;;;;2.28;1.60;;;22.10;99.90;;;;;;6216433;23;20203;-77
2021/07/26 05:20:51;;;;;;;2.92;1.42;;;22.80;99.90;;;;;;6215878;23;20191;-77
2021/07/26 05:23:17;;;;;;;3.17;1.52;;;23.20;99.90;;;;;;6216447;23;20183;-77
2021/07/26 05:25:45;;;;;;;3.00;1.90;;;22.80;99.90;;;;;;6215727;23;20194;-77
2021/07/26 05:28:12;;;;;;;5.00;1.55;;;22.50;99.90;;;;;;6216503;23;20246;-76
2021/07/26 05:30:39;;;;;;;1.90;1.40;;;22.20;99.90;;;;;;6216246;23;20216;-77
2021/07/26 05:33:06;;;;;;;3.30;1.50;;;22.00;99.90;;;;;;6216197;23;20234;-77
2021/07/26 05:35:34;;;;;;;4.50;1.48;;;21.60;99.90;;;;;;6215760;23;20261;-77
2021/07/26 05:38:04;;;;;;;2.58;1.50;;;20.90;99.90;;;;;;6215744;23;20701;-77
2021/07/26 05:40:31;;;;;;;3.40;1.35;;;20.50;99.90;;;;;;6215715;23;20226;-77
2021/07/26 05:42:57;;;;;;;5.93;1.38;;;20.40;99.90;;;;;;6215890;23;20199;-77
2021/07/26 05:45:24;;;;;;;3.40;1.33;;;20.40;99.90;;;;;;6215387;23;20314;-77
2021/07/26 05:47:51;;;;;;;2.08;1.73;;;20.40;99.90;;;;;;6216317;23;20196;-77
2021/07/26 05:50:18;;;;;;;2.15;1.38;;;20.30;99.90;;;;;;6216051;23;20639;-77
2021/07/26 05:52:47;;;;;;;2.95;1.55;;;20.30;99.90;;;;;;6216707;23;20180;-77
2021/07/26 05:55:14;;;;;;;2.13;1.50;;;20.20;99.90;;;;;;6216621;23;20212;-77
2021/07/26 05:57:45;;;;;;;1.65;1.20;;;20.20;99.90;;;;;;6215217;23;20211;-77
2021/07/26 06:00:15;;;;;;;2.35;1.65;;;20.20;99.90;;;;;;6216067;23;20201;-77
2021/07/26 06:02:43;;;;;;;3.30;1.60;;;20.10;99.90;;;;;;6215861;23;20180;-76
2021/07/26 06:05:10;;;;;;;1.52;1.20;;;20.30;99.90;;;;;;6216015;23;20227;-77
2021/07/26 06:07:37;;;;;;;2.80;1.42;;;20.40;99.90;;;;;;6215003;23;20196;-77
2021/07/26 06:10:06;;;;;;;2.00;1.33;;;20.40;99.90;;;;;;6216172;23;20181;-77
2021/07/26 06:12:33;;;;;;;2.70;1.63;;;20.40;99.90;;;;;;6216243;23;20177;-77
2021/07/26 06:15:00;;;;;;;1.52;1.27;;;20.30;99.90;;;;;;6215911;23;20824;-77
2021/07/26 06:17:26;;;;;;;2.80;1.30;;;20.20;99.90;;;;;;6216184;23;20218;-77
2021/07/26 06:19:53;;;;;;;2.00;1.30;;;20.20;99.90;;;;;;6215038;23;20188;-77
2021/07/26 06:22:20;;;;;;;2.00;1.17;;;20.20;99.90;;;;;;6214902;23;20460;-77
2021/07/26 06:24:47;;;;;;;1.80;1.45;;;20.20;99.90;;;;;;6215263;23;20457;-77
2021/07/26 06:27:15;;;;;;;2.40;1.40;;;20.20;99.90;;;;;;6215413;23;20200;-76
2021/07/26 06:29:42;;;;;;;1.88;1.40;;;20.40;99.90;;;;;;6216318;23;20184;-76
2021/07/26 06:32:09;;;;;;;3.40;1.55;;;20.40;99.90;;;;;;6215910;23;20504;-76
2021/07/26 06:34:35;;;;;;;2.28;1.40;;;20.40;99.90;;;;;;6215732;23;20208;-76
2021/07/26 06:37:02;;;;;;;2.58;1.40;;;20.30;99.90;;;;;;6215862;23;20177;-76
2021/07/26 06:39:29;;;;;;;4.95;1.90;;;20.30;99.90;;;;;;6216090;23;20182;-77
2021/07/26 06:41:56;;;;;;;8.07;2.20;;;20.30;99.90;;;;;;6216018;23;20176;-76
2021/07/26 06:44:24;;;;;;;2.95;1.85;;;20.30;99.90;;;;;;6215725;23;20196;-76
2021/07/26 06:46:51;;;;;;;5.28;2.72;;;20.10;99.90;;;;;;6215472;23;20505;-76
2021/07/26 06:49:18;;;;;;;5.45;2.70;;;20.10;99.90;;;;;;6215583;23;20662;-76
2021/07/26 06:51:44;;;;;;;4.15;2.28;;;20.30;99.90;;;;;;6214979;23;20180;-77
2021/07/26 06:54:11;;;;;;;5.93;2.50;;;20.60;99.90;;;;;;6214977;23;20180;-77
2021/07/26 06:56:39;;;;;;;5.00;2.80;;;20.70;99.90;;;;;;6215591;23;20183;-76
2021/07/26 06:59:05;;;;;;;13.40;3.58;;;20.70;99.90;;;;;;6216116;23;20196;-76
2021/07/26 07:01:33;;;;;;;5.03;3.35;;;20.70;99.90;;;;;;6215676;23;20176;-76
2021/07/26 07:04:00;;;;;;;6.32;2.88;;;20.60;99.90;;;;;;6215307;23;20180;-76
2021/07/26 07:06:27;;;;;;;6.03;3.40;;;20.50;99.90;;;;;;6215815;23;20176;-76
2021/07/26 07:08:54;;;;;;;7.50;4.05;;;20.40;99.90;;;;;;6215148;23;20751;-75
2021/07/26 07:11:21;;;;;;;8.52;3.58;;;20.30;99.90;;;;;;6215303;23;20543;-75
2021/07/26 07:13:50;;;;;;;8.07;3.58;;;20.10;99.90;;;;;;6215601;23;20176;-74
2021/07/26 07:16:18;;;;;;;10.25;4.78;;;20.10;99.90;;;;;;6215513;23;20204;-75
2021/07/26 07:18:47;;;;;;;8.90;3.95;;;20.00;99.90;;;;;;6215445;23;20205;-74
2021/07/26 07:21:17;;;;;;;8.25;3.55;;;19.90;99.90;;;;;;6215321;23;20184;-75
2021/07/26 07:23:44;;;;;;;6.85;3.72;;;20.10;99.90;;;;;;6215398;23;20180;-75
2021/07/26 07:26:11;;;;;;;8.02;4.03;;;20.20;99.90;;;;;;6215744;23;20176;-75
2021/07/26 07:28:38;;;;;;;7.00;3.35;;;20.40;99.90;;;;;;6215655;23;20278;-75
2021/07/26 07:31:05;;;;;;;6.28;3.53;;;20.60;99.90;;;;;;6215855;23;20200;-75
2021/07/26 07:33:32;;;;;;;7.22;3.40;;;20.80;99.90;;;;;;6215348;23;20180;-75
2021/07/26 07:36:03;;;;;;;5.38;2.92;;;20.90;99.90;;;;;;6215642;23;20208;-76
2021/07/26 07:38:30;;;;;;;5.43;2.80;;;20.70;99.90;;;;;;6214930;23;20200;-76
2021/07/26 07:40:58;;;;;;;6.90;3.80;;;20.40;99.90;;;;;;6215313;23;20176;-76
2021/07/26 07:43:25;;;;;;;8.63;3.78;;;20.30;99.90;;;;;;6215205;23;20211;-76
2021/07/26 07:45:54;;;;;;;8.35;3.67;;;20.30;99.90;;;;;;6215792;23;20176;-76
2021/07/26 07:48:20;;;;;;;7.43;4.07;;;20.10;99.90;;;;;;6215808;23;20246;-76
2021/07/26 07:50:47;;;;;;;8.27;4.03;;;20.00;99.90;;;;;;6215292;23;20251;-76
2021/07/26 07:53:16;;;;;;;9.07;4.95;;;19.90;99.90;;;;;;6215579;23;20183;-76
2021/07/26 07:55:42;;;;;;;7.55;3.83;;;19.80;99.90;;;;;;6215008;23;20215;-76
2021/07/26 07:58:09;;;;;;;7.72;3.83;;;19.60;99.90;;;;;;6215141;23;20200;-76
2021/07/26 08:00:36;;;;;;;10.13;5.00;;;19.60;99.90;;;;;;6215352;23;20243;-77
2021/07/26 08:03:03;;;;;;;10.35;4.55;;;19.80;99.90;;;;;;6216130;23;20176;-76
2021/07/26 08:05:30;;;;;;;8.95;3.47;;;19.90;99.90;;;;;;6217357;23;20241;-76
2021/07/26 08:07:58;;;;;;;11.35;4.13;;;20.10;99.90;;;;;;6217591;23;20206;-76
2021/07/26 08:10:26;;;;;;;8.65;3.90;;;20.30;99.90;;;;;;6217965;23;20176;-76
2021/07/26 08:12:53;;;;;;;10.07;4.05;;;20.30;99.90;;;;;;6217389;23;20177;-75
2021/07/26 08:15:20;;;;;;;8.80;4.22;;;20.60;99.90;;;;;;6217205;23;20204;-77
2021/07/26 08:17:47;;;;;;;9.25;3.78;;;21.50;99.90;;;;;;6217209;23;20258;-76
2021/07/26 08:20:17;;;;;;;6.35;3.53;;;22.80;99.90;;;;;;6218128;23;20518;-76
2021/07/26 08:22:44;;;;;;;7.30;3.22;;;23.70;99.90;;;;;;6217294;23;20176;-77
2021/07/26 08:25:12;;;;;;;5.57;3.03;;;24.70;99.90;;;;;;6217206;23;20189;-76
2021/07/26 08:27:51;;;;;;;5.35;2.58;;;25.20;99.90;;;;;;6216788;23;20197;-77
2021/07/26 08:30:22;;;;;;;8.15;3.20;;;25.60;99.90;;;;;;6217111;23;20222;-76
2021/07/26 08:32:49;;;;;;;4.78;2.63;;;26.20;99.90;;;;;;6216348;23;20184;-77
2021/07/26 08:35:17;;;;;;;6.95;2.50;;;25.90;99.90;;;;;;6216517;23;20234;-76
2021/07/26 08:37:44;;;;;;;4.70;2.42;;;25.80;99.90;;;;;;6216894;23;20204;-76
2021/07/26 08:40:11;;;;;;;4.15;2.50;;;26.00;99.90;;;;;;6217352;23;20187;-76
2021/07/26 08:42:38;;;;;;;6.70;3.03;;;26.20;99.90;;;;;;6217130;23;20182;-77
2021/07/26 08:45:09;;;;;;;4.85;2.47;;;26.10;99.90;;;;;;6217053;23;20176;-77
2021/07/26 08:47:39;;;;;;;5.75;2.75;;;25.50;99.90;;;;;;6216175;23;20254;-76
2021/07/26 08:50:07;;;;;;;3.58;2.40;;;25.50;99.90;;;;;;6216634;23;20204;-76
2021/07/26 08:52:37;;;;;;;7.00;2.75;;;25.50;99.90;;;;;;6217028;23;20187;-76
2021/07/26 08:55:04;;;;;;;4.22;2.10;;;25.50;99.90;;;;;;6216451;23;20203;-76
2021/07/26 08:57:34;;;;;;;5.43;2.95;;;25.30;99.90;;;;;;6216857;23;20206;-77
2021/07/26 09:00:01;;;;;;;3.92;2.35;;;25.10;99.90;;;;;;6215251;23;20176;-76
2021/07/26 09:02:29;;;;;;;3.00;2.03;;;25.20;99.90;;;;;;6215851;23;20263;-77
2021/07/26 09:04:56;;;;;;;4.78;2.05;;;25.90;99.90;;;;;;6216950;23;20219;-76
2021/07/26 09:07:27;;;;;;;3.63;2.13;;;26.00;99.90;;;;;;6216118;23;20196;-76
2021/07/26 09:09:54;;;;;;;3.33;2.33;;;25.70;99.90;;;;;;6216381;23;20181;-77
2021/07/26 09:12:31;;;;;;;3.67;2.25;;;25.60;99.90;;;;;;6216325;23;20180;-76
2021/07/26 09:14:59;;;;;;;3.03;2.10;;;25.30;99.90;;;;;;6216194;23;20292;-76
2021/07/26 09:17:38;;;;;;;3.70;2.25;;;25.20;99.90;;;;;;6216547;23;20233;-76
2021/07/26 09:20:06;;;;;;;6.63;2.70;;;24.90;99.90;;;;;;6216653;23;20187;-76
2021/07/26 09:22:36;;;;;;;3.13;2.13;;;24.80;99.90;;;;;;6216127;23;20183;-77
2021/07/26 09:25:15;;;;;;;6.22;2.30;;;24.40;99.90;;;;;;6216745;23;20259;-76
2021/07/26 09:28:02;;;;;;;4.97;2.03;;;24.00;99.90;;;;;;6216166;23;20235;-77
2021/07/26 09:30:34;;;;;;;3.47;2.00;;;23.90;99.90;;;;;;6216820;23;20180;-76
2021/07/26 09:33:03;;;;;;;3.75;2.28;;;23.80;99.90;;;;;;6216216;23;20661;-76
2021/07/26 09:35:30;;;;;;;4.15;2.05;;;24.00;99.90;;;;;;6216527;23;20204;-76
2021/07/26 09:37:58;;;;;;;3.05;1.90;;;24.40;99.90;;;;;;6216458;23;20200;-77
2021/07/26 09:40:27;;;;;;;5.28;2.35;;;25.00;99.90;;;;;;6216894;23;20177;-77
2021/07/26 09:42:54;;;;;;;4.18;2.47;;;25.50;99.90;;;;;;6216098;23;20199;-77
2021/07/26 09:45:23;;;;;;;3.35;2.08;;;25.60;99.90;;;;;;6216739;23;20238;-76
2021/07/26 09:48:08;;;;;;;4.13;2.08;;;25.60;99.90;;;;;;6216138;23;20206;-77
2021/07/26 09:50:35;;;;;;;2.70;1.73;;;25.60;99.90;;;;;;6216583;23;20214;-76
2021/07/26 09:53:09;;;;;;;5.00;2.35;;;25.80;99.90;;;;;;6216798;23;20259;-77
2021/07/26 09:55:38;;;;;;;3.75;2.00;;;25.90;99.90;;;;;;6216561;23;20290;-77
2021/07/26 09:58:06;;;;;;;3.65;2.00;;;25.90;99.90;;;;;;6218120;23;20196;-76
2021/07/26 10:00:33;;;;;;;2.88;1.90;;;25.80;99.90;;;;;;6216920;23;20532;-76
2021/07/26 10:03:00;;;;;;;3.92;2.10;;;25.80;99.90;;;;;;6216547;23;20176;-77
2021/07/26 10:05:29;;;;;;;5.13;2.15;;;25.80;99.90;;;;;;6216312;23;20190;-79
2021/07/26 10:07:56;;;;;;;4.55;2.00;;;25.70;99.90;;;;;;6216107;23;20201;-76
2021/07/26 10:10:23;;;;;;;4.50;2.20;;;25.30;99.90;;;;;;6216128;23;20259;-77
2021/07/26 10:12:51;;;;;;;3.15;1.98;;;25.00;99.90;;;;;;6216068;23;20176;-76
2021/07/26 10:15:19;;;;;;;2.70;1.58;;;24.70;99.90;;;;;;6215981;23;20523;-77
2021/07/26 10:17:47;;;;;;;3.28;1.98;;;24.70;99.90;;;;;;6215284;23;20667;-77
2021/07/26 10:20:18;;;;;;;4.80;2.08;;;24.80;99.90;;;;;;6216268;23;20177;-78
2021/07/26 10:22:54;;;;;;;4.43;2.60;;;24.50;99.90;;;;;;6216232;23;20176;-77
2021/07/26 10:25:29;;;;;;;3.00;1.80;;;24.30;99.90;;;;;;6215757;23;20662;-76
2021/07/26 10:27:59;;;;;;;3.47;1.85;;;24.20;99.90;;;;;;6215538;23;20206;-76
2021/07/26 10:30:34;;;;;;;3.30;2.00;;;24.30;99.90;;;;;;6215792;23;20846;-75
2021/07/26 10:33:02;;;;;;;2.97;1.48;;;24.40;99.90;;;;;;6215959;23;20180;-76
2021/07/26 10:35:39;;;;;;;3.47;2.15;;;24.20;99.90;;;;;;6216082;23;20200;-76
2021/07/26 10:38:10;;;;;;;3.60;1.92;;;24.40;99.90;;;;;;6215492;23;20271;-76
2021/07/26 10:40:41;;;;;;;1.92;1.55;;;24.40;99.90;;;;;;6215925;23;20187;-76
2021/07/26 10:43:16;;;;;;;3.35;1.80;;;24.10;99.90;;;;;;6216348;23;20220;-76
2021/07/26 10:46:03;;;;;;;4.57;2.03;;;24.20;99.90;;;;;;6215959;23;20275;-77
2021/07/26 10:48:34;;;;;;;3.05;1.52;;;24.10;99.90;;;;;;6210555;23;20271;-76
2021/07/26 10:51:02;;;;;;;4.57;2.05;;;23.80;99.90;;;;;;6216285;23;20180;-76
2021/07/26 10:53:58;;;;;;;5.30;1.60;;;23.90;99.90;;;;;;6215964;23;20183;-77
2021/07/26 10:56:25;;;;;;;2.28;1.40;;;24.10;99.90;;;;;;6215760;23;20212;-76
2021/07/26 10:59:05;;;;;;;3.35;2.10;;;24.20;99.90;;;;;;6216156;23;20280;-76
2021/07/26 11:02:02;;;;;;;2.47;2.00;;;24.30;99.90;;;;;;6216176;23;20260;-76
2021/07/26 11:04:41;;;;;;;3.10;1.50;;;24.60;99.90;;;;;;6215866;23;20626;-77
2021/07/26 11:07:26;;;;;;;3.15;1.42;;;25.00;99.90;;;;;;6215518;23;20511;-76
2021/07/26 11:09:54;;;;;;;2.25;1.50;;;25.20;99.90;;;;;;6215033;23;20187;-76
2021/07/26 11:12:52;;;;;;;4.20;1.70;;;25.10;99.90;;;;;;6215585;23;20182;-77
2021/07/26 11:15:19;;;;;;;2.95;1.70;;;25.10;99.90;;;;;;6214792;23;20184;-76
2021/07/26 11:18:31;;;;;;;3.28;1.52;;;24.90;99.90;;;;;;6215577;23;20368;-77
2021/07/26 11:21:12;;;;;;;2.30;1.67;;;25.10;99.90;;;;;;6215485;23;20219;-76
2021/07/26 11:23:41;;;;;;;3.20;1.80;;;24.90;99.90;;;;;;6215657;23;20214;-76
2021/07/26 11:26:19;;;;;;;2.97;1.70;;;24.60;99.90;;;;;;6215752;23;20203;-77
2021/07/26 11:28:46;;;;;;;2.47;1.60;;;24.30;99.90;;;;;;6215208;23;20204;-76
2021/07/26 11:31:20;;;;;;;2.38;1.63;;;24.00;99.90;;;;;;6215756;23;20199;-76
2021/07/26 11:33:47;;;;;;;1.90;1.30;;;24.50;99.90;;;;;;6215513;23;20175;-76
2021/07/26 11:36:14;;;;;;;2.40;1.40;;;25.00;99.90;;;;;;6215370;23;20204;-76
2021/07/26 11:38:57;;;;;;;3.17;1.38;;;25.30;99.90;;;;;;6214618;23;20199;-77
2021/07/26 11:41:26;;;;;;;2.15;1.30;;;25.20;99.90;;;;;;6215558;23;20177;-75
2021/07/26 11:43:54;;;;;;;1.80;1.33;;;25.10;99.90;;;;;;6215592;23;20176;-77
2021/07/26 11:46:22;;;;;;;2.05;1.48;;;25.30;99.90;;;;;;6215781;23;20231;-77
2021/07/26 11:48:53;;;;;;;4.15;1.40;;;25.60;99.90;;;;;;6215585;23;20206;-77
2021/07/26 11:51:35;;;;;;;2.67;1.70;;;25.50;99.90;;;;;;6215643;23;20183;-76
2021/07/26 11:54:04;;;;;;;3.33;1.45;;;25.60;99.90;;;;;;6215773;23;20510;-77
2021/07/26 11:56:33;;;;;;;1.67;1.13;;;25.50;99.90;;;;;;6215375;23;20230;-76
2021/07/26 11:59:17;;;;;;;1.70;1.23;;;25.40;99.90;;;;;;6215222;23;20206;-76
2021/07/26 12:01:47;;;;;;;5.35;1.50;;;25.30;99.90;;;;;;6215767;23;20176;-76
2021/07/26 12:04:15;;;;;;;2.88;1.48;;;25.50;99.90;;;;;;6215494;23;20180;-76
2021/07/26 12:07:01;;;;;;;2.95;1.65;;;25.50;99.90;;;;;;6215106;23;20219;-77
2021/07/26 12:09:29;;;;;;;1.67;1.10;;;25.70;99.90;;;;;;6214558;23;20650;-77
2021/07/26 12:12:09;;;;;;;1.98;1.23;;;25.80;99.90;;;;;;6215256;23;20177;-78
2021/07/26 12:14:36;;;;;;;2.47;1.35;;;25.80;99.90;;;;;;6215681;23;20176;-76
2021/07/26 12:17:08;;;;;;;3.10;1.25;;;25.50;99.90;;;;;;6215229;23;20208;-77
2021/07/26 12:19:37;;;;;;;2.22;1.40;;;25.40;99.90;;;;;;6216029;23;20176;-76
2021/07/26 12:22:21;;;;;;;2.25;1.20;;;25.20;99.90;;;;;;6215110;23;20188;-76
2021/07/26 12:24:58;;;;;;;2.40;1.10;;;25.20;99.90;;;;;;6215288;23;20260;-77
2021/07/26 12:27:28;;;;;;;2.00;0.98;;;25.10;99.90;;;;;;6214895;23;20246;-77
2021/07/26 12:30:00;;;;;;;1.52;1.13;;;24.90;99.90;;;;;;6215516;23;20177;-77
2021/07/26 12:32:28;;;;;;;4.68;1.60;;;24.90;99.90;;;;;;6215518;23;20183;-76
2021/07/26 12:35:23;;;;;;;2.00;1.23;;;24.80;99.90;;;;;;6215200;23;20176;-77
2021/07/26 12:38:21;;;;;;;2.28;1.10;;;24.40;99.90;;;;;;6214386;23;20212;-75
2021/07/26 12:40:51;;;;;;;1.92;1.27;;;23.90;99.90;;;;;;6215070;23;20176;-75
2021/07/26 12:43:22;;;;;;;1.90;1.30;;;23.70;99.90;;;;;;6215177;23;20188;-75
2021/07/26 12:46:03;;;;;;;2.22;1.30;;;23.70;99.90;;;;;;6215313;23;20181;-76
2021/07/26 12:48:31;;;;;;;2.83;1.20;;;23.80;99.90;;;;;;6215384;23;20208;-75
2021/07/26 12:50:59;;;;;;;2.28;1.50;;;23.80;99.90;;;;;;6217097;23;20177;-75
2021/07/26 12:53:27;;;;;;;2.45;1.40;;;23.70;99.90;;;;;;6217199;23;20198;-75
2021/07/26 12:55:55;;;;;;;2.47;1.80;;;23.60;99.90;;;;;;6217097;23;20176;-75